createdAt,value
2023-04-16T00:00:10.669Z,9.70
2023-04-16T00:02:39.533Z,9.70
2023-04-16T00:05:08.038Z,9.70
2023-04-16T00:07:37.375Z,9.70
2023-04-16T00:10:06.282Z,9.60
2023-04-16T00:12:34.565Z,9.60
2023-04-16T00:15:02.483Z,9.60
2023-04-16T00:17:30.390Z,9.60
2023-04-16T00:19:58.394Z,9.60
2023-04-16T00:22:26.237Z,9.60
2023-04-16T00:24:55.463Z,9.60
2023-04-16T00:27:23.292Z,9.60
2023-04-16T00:29:51.100Z,9.60
2023-04-16T00:32:18.901Z,9.50
2023-04-16T00:34:46.819Z,9.50
2023-04-16T00:37:14.759Z,9.50
2023-04-16T00:39:42.686Z,9.50
2023-04-16T00:42:12.944Z,9.50
2023-04-16T00:44:40.718Z,9.40
2023-04-16T00:47:09.011Z,9.40
2023-04-16T00:49:37.420Z,9.40
2023-04-16T00:52:05.382Z,9.40
2023-04-16T00:54:33.705Z,9.30
2023-04-16T00:57:01.676Z,9.30
2023-04-16T00:59:30.842Z,9.30
2023-04-16T01:01:58.825Z,9.30
2023-04-16T01:04:27.230Z,9.20
2023-04-16T01:06:55.635Z,9.20
2023-04-16T01:09:23.568Z,9.20
2023-04-16T01:11:51.548Z,9.20
2023-04-16T01:14:19.556Z,9.20
2023-04-16T01:16:48.740Z,9.20
2023-04-16T01:19:16.684Z,9.20
2023-04-16T01:21:46.173Z,9.20
2023-04-16T01:24:13.957Z,9.20
2023-04-16T01:26:41.848Z,9.20
2023-04-16T01:29:09.898Z,9.20
2023-04-16T01:31:37.863Z,9.20
2023-04-16T01:34:06.004Z,9.20
2023-04-16T01:36:33.851Z,9.20
2023-04-16T01:39:03.353Z,9.20
2023-04-16T01:41:32.593Z,9.20
2023-04-16T01:44:00.378Z,9.20
2023-04-16T01:46:29.910Z,9.20
2023-04-16T01:48:58.415Z,9.20
2023-04-16T01:51:27.190Z,9.20
2023-04-16T01:53:55.565Z,9.20
2023-04-16T01:56:24.671Z,9.20
2023-04-16T01:58:52.576Z,9.20
2023-04-16T02:01:23.021Z,9.20
2023-04-16T02:03:52.082Z,9.20
2023-04-16T02:06:20.242Z,9.20
2023-04-16T02:08:49.158Z,9.20
2023-04-16T02:11:17.009Z,9.20
2023-04-16T02:13:46.108Z,9.20
2023-04-16T02:16:13.909Z,9.20
2023-04-16T02:18:41.775Z,9.20
2023-04-16T02:21:09.672Z,9.20
2023-04-16T02:23:37.932Z,9.20
2023-04-16T02:26:06.047Z,9.20
2023-04-16T02:28:33.958Z,9.20
2023-04-16T02:31:03.128Z,9.20
2023-04-16T02:33:31.816Z,9.20
2023-04-16T02:36:00.079Z,9.20
2023-04-16T02:38:27.915Z,9.20
2023-04-16T02:40:55.806Z,9.20
2023-04-16T02:43:23.858Z,9.20
2023-04-16T02:45:51.826Z,9.20
2023-04-16T02:48:20.984Z,9.20
2023-04-16T02:50:48.860Z,9.20
2023-04-16T02:53:16.660Z,9.20
2023-04-16T02:55:52.440Z,9.10
2023-04-16T02:58:20.456Z,9.20
2023-04-16T03:00:48.441Z,9.20
2023-04-16T03:03:16.364Z,9.20
2023-04-16T03:05:45.604Z,9.20
2023-04-16T03:08:14.811Z,9.20
2023-04-16T03:10:42.685Z,9.30
2023-04-16T03:13:10.757Z,9.20
2023-04-16T03:15:38.625Z,9.20
2023-04-16T03:18:06.753Z,9.20
2023-04-16T03:20:34.829Z,9.30
2023-04-16T03:23:03.948Z,9.30
2023-04-16T03:25:31.843Z,9.30
2023-04-16T03:27:59.697Z,9.30
2023-04-16T03:30:28.266Z,9.30
2023-04-16T03:32:56.278Z,9.30
2023-04-16T03:35:24.116Z,9.30
2023-04-16T03:37:51.915Z,9.30
2023-04-16T03:40:21.027Z,9.30
2023-04-16T03:42:49.175Z,9.30
2023-04-16T03:45:17.376Z,9.30
2023-04-16T03:47:45.228Z,9.30
2023-04-16T03:50:13.297Z,9.30
2023-04-16T03:52:41.344Z,9.30
2023-04-16T03:55:09.969Z,9.30
2023-04-16T03:57:39.099Z,9.30
2023-04-16T04:00:08.784Z,9.30
2023-04-16T04:02:36.742Z,9.30
2023-04-16T04:05:05.000Z,9.30
2023-04-16T04:07:32.834Z,9.30
2023-04-16T04:10:00.883Z,9.30
2023-04-16T04:12:28.598Z,9.30
2023-04-16T04:14:58.041Z,9.30
2023-04-16T04:17:26.045Z,9.30
2023-04-16T04:20:01.342Z,9.40
2023-04-16T04:22:29.691Z,9.40
2023-04-16T04:24:57.713Z,9.40
2023-04-16T04:27:25.597Z,9.30
2023-04-16T04:29:53.356Z,9.40
2023-04-16T04:32:22.935Z,9.30
2023-04-16T04:34:51.078Z,9.40
2023-04-16T04:37:19.071Z,9.40
2023-04-16T04:39:46.875Z,9.40
2023-04-16T04:42:14.728Z,9.40
2023-04-16T04:44:42.497Z,9.40
2023-04-16T04:47:10.518Z,9.40
2023-04-16T04:49:40.980Z,9.40
2023-04-16T04:52:09.255Z,9.40
2023-04-16T04:54:37.132Z,9.40
2023-04-16T04:57:05.021Z,9.50
2023-04-16T04:59:32.845Z,9.50
2023-04-16T05:02:02.396Z,9.50
2023-04-16T05:04:30.437Z,9.50
2023-04-16T05:06:59.536Z,9.50
2023-04-16T05:09:27.284Z,9.50
2023-04-16T05:11:55.296Z,9.50
2023-04-16T05:14:23.305Z,9.40
2023-04-16T05:16:51.346Z,9.50
2023-04-16T05:19:19.255Z,9.50
2023-04-16T05:21:47.023Z,9.50
2023-04-16T05:24:16.117Z,9.50
2023-04-16T05:26:43.968Z,9.50
2023-04-16T05:29:13.985Z,9.50
2023-04-16T05:31:41.750Z,9.50
2023-04-16T05:34:09.583Z,9.50
2023-04-16T05:36:37.365Z,9.50
2023-04-16T05:39:05.297Z,9.50
2023-04-16T05:41:37.529Z,9.50
2023-04-16T05:44:05.689Z,9.60
2023-04-16T05:46:33.565Z,9.60
2023-04-16T05:49:01.498Z,9.60
2023-04-16T05:51:29.328Z,9.60
2023-04-16T05:53:57.088Z,9.60
2023-04-16T05:56:25.558Z,9.60
2023-04-16T05:58:54.649Z,9.60
2023-04-16T06:01:23.636Z,9.70
2023-04-16T06:03:51.462Z,9.70
2023-04-16T06:06:19.500Z,9.80
2023-04-16T06:08:47.459Z,9.80
2023-04-16T06:11:15.315Z,9.80
2023-04-16T06:13:43.697Z,9.80
2023-04-16T06:16:12.807Z,9.80
2023-04-16T06:18:40.759Z,9.80
2023-04-16T06:21:08.724Z,9.80
2023-04-16T06:23:36.711Z,9.80
2023-04-16T06:26:06.225Z,9.90
2023-04-16T06:28:33.993Z,9.80
2023-04-16T06:31:01.968Z,9.90
2023-04-16T06:33:31.057Z,9.90
2023-04-16T06:35:58.831Z,9.90
2023-04-16T06:38:26.625Z,10.00
2023-04-16T06:40:54.494Z,9.90
2023-04-16T06:43:22.313Z,10.00
2023-04-16T06:45:50.215Z,10.00
2023-04-16T06:48:17.962Z,10.10
2023-04-16T06:50:47.081Z,10.10
2023-04-16T06:53:14.979Z,10.10
2023-04-16T06:55:42.732Z,10.10
2023-04-16T06:58:10.525Z,10.20
2023-04-16T07:00:38.387Z,10.20
2023-04-16T07:03:06.372Z,10.20
2023-04-16T07:05:34.366Z,10.20
2023-04-16T07:08:03.442Z,10.30
2023-04-16T07:10:31.267Z,10.30
2023-04-16T07:13:01.551Z,10.30
2023-04-16T07:15:30.410Z,10.30
2023-04-16T07:17:58.381Z,10.30
2023-04-16T07:20:26.382Z,10.30
2023-04-16T07:22:54.152Z,10.40
2023-04-16T07:25:23.288Z,10.30
2023-04-16T07:27:51.124Z,10.30
2023-04-16T07:30:18.920Z,10.30
2023-04-16T07:32:46.714Z,10.40
2023-04-16T07:35:14.513Z,10.40
2023-04-16T07:37:42.665Z,10.40
2023-04-16T07:40:11.335Z,10.40
2023-04-16T07:42:40.529Z,10.50
2023-04-16T07:45:09.255Z,10.60
2023-04-16T07:47:37.096Z,10.70
2023-04-16T07:50:05.874Z,10.70
2023-04-16T07:52:33.811Z,10.80
2023-04-16T07:55:01.628Z,10.70
2023-04-16T07:57:29.347Z,10.80
2023-04-16T08:00:02.165Z,10.80
2023-04-16T08:02:30.241Z,10.90
2023-04-16T08:04:58.333Z,10.90
2023-04-16T08:07:26.537Z,10.90
2023-04-16T08:09:54.949Z,11.00
2023-04-16T08:12:23.139Z,11.00
2023-04-16T08:14:50.851Z,11.00
2023-04-16T08:17:19.951Z,11.00
2023-04-16T08:19:47.794Z,11.00
2023-04-16T08:22:16.112Z,11.00
2023-04-16T08:24:44.032Z,11.00
2023-04-16T08:27:18.332Z,11.10
2023-04-16T08:29:46.929Z,11.10
2023-04-16T08:32:14.789Z,11.10
2023-04-16T08:34:44.433Z,11.10
2023-04-16T08:37:12.305Z,11.20
2023-04-16T08:39:40.621Z,11.20
2023-04-16T08:42:19.461Z,11.30
2023-04-16T08:44:50.165Z,11.40
2023-04-16T08:47:18.284Z,11.50
2023-04-16T08:49:47.424Z,11.60
2023-04-16T08:52:20.480Z,11.60
2023-04-16T08:54:57.512Z,11.70
2023-04-16T08:57:31.322Z,11.80
2023-04-16T08:59:59.479Z,11.80
2023-04-16T09:02:27.807Z,11.80
2023-04-16T09:04:59.799Z,12.00
2023-04-16T09:07:29.878Z,12.10
2023-04-16T09:10:00.650Z,12.20
2023-04-16T09:12:28.617Z,12.30
2023-04-16T09:14:59.695Z,12.40
2023-04-16T09:17:28.216Z,12.50
2023-04-16T09:19:57.327Z,12.70
2023-04-16T09:22:25.200Z,12.80
2023-04-16T09:24:53.115Z,12.80
2023-04-16T09:27:23.743Z,12.80
2023-04-16T09:29:53.142Z,12.80
2023-04-16T09:32:26.273Z,12.70
2023-04-16T09:34:59.619Z,12.70
2023-04-16T09:37:29.647Z,12.70
2023-04-16T09:39:58.883Z,12.70
2023-04-16T09:42:29.457Z,12.70
2023-04-16T09:44:59.737Z,12.80
2023-04-16T09:47:40.957Z,12.80
2023-04-16T09:50:12.990Z,12.80
2023-04-16T09:52:41.214Z,12.80
2023-04-16T09:55:09.207Z,12.80
2023-04-16T09:57:39.386Z,12.90
2023-04-16T10:00:08.973Z,12.90
2023-04-16T10:02:39.417Z,13.00
2023-04-16T10:05:08.122Z,13.10
2023-04-16T10:07:38.754Z,13.10
2023-04-16T10:10:07.652Z,13.00
2023-04-16T10:12:35.545Z,13.10
2023-04-16T10:15:03.900Z,13.00
2023-04-16T10:17:32.715Z,13.00
2023-04-16T10:20:02.949Z,12.90
2023-04-16T10:22:30.820Z,12.80
2023-04-16T10:25:00.501Z,12.80
2023-04-16T10:27:28.890Z,12.80
2023-04-16T10:29:57.379Z,12.70
2023-04-16T10:32:28.750Z,12.80
2023-04-16T10:34:56.849Z,12.70
2023-04-16T10:37:31.119Z,12.70
2023-04-16T10:40:00.814Z,12.70
2023-04-16T10:42:28.704Z,12.70
2023-04-16T10:44:59.838Z,12.70
2023-04-16T10:47:27.931Z,12.70
2023-04-16T10:49:55.724Z,12.70
2023-04-16T10:52:24.996Z,12.70
2023-04-16T10:54:55.653Z,12.60
2023-04-16T10:57:29.877Z,12.60
2023-04-16T10:59:59.283Z,12.60
2023-04-16T11:02:30.606Z,12.60
2023-04-16T11:04:59.010Z,12.60
2023-04-16T11:07:35.890Z,12.50
2023-04-16T11:10:06.233Z,12.60
2023-04-16T11:12:38.289Z,12.60
2023-04-16T11:15:07.935Z,12.60
2023-04-16T11:17:39.125Z,12.70
2023-04-16T11:20:20.223Z,12.80
2023-04-16T11:22:49.042Z,12.90
2023-04-16T11:25:21.701Z,13.00
2023-04-16T11:27:51.943Z,13.00
2023-04-16T11:30:20.819Z,13.00
2023-04-16T11:32:48.854Z,13.00
2023-04-16T11:35:18.349Z,13.00
2023-04-16T11:37:48.314Z,13.00
2023-04-16T11:40:16.424Z,12.90
2023-04-16T11:42:44.698Z,12.90
2023-04-16T11:45:14.308Z,12.80
2023-04-16T11:47:46.662Z,12.80
2023-04-16T11:50:21.831Z,12.70
2023-04-16T11:52:50.510Z,12.70
2023-04-16T11:55:18.736Z,12.70
2023-04-16T11:57:46.785Z,12.70
2023-04-16T12:00:17.019Z,12.70
2023-04-16T12:02:47.215Z,12.60
2023-04-16T12:05:28.745Z,12.60
2023-04-16T12:07:56.784Z,12.60
2023-04-16T12:10:24.794Z,12.60
2023-04-16T12:12:52.959Z,12.60
2023-04-16T12:15:22.245Z,12.70
2023-04-16T12:17:50.557Z,12.70
2023-04-16T12:20:18.725Z,12.60
2023-04-16T12:22:49.217Z,12.60
2023-04-16T12:25:18.772Z,12.50
2023-04-16T12:27:49.526Z,12.50
2023-04-16T12:30:23.002Z,12.40
2023-04-16T12:32:53.412Z,12.40
2023-04-16T12:35:31.678Z,12.40
2023-04-16T12:37:59.393Z,12.40
2023-04-16T12:40:28.337Z,12.40
2023-04-16T12:42:56.574Z,12.40
2023-04-16T12:45:25.555Z,12.40
2023-04-16T12:47:55.885Z,12.40
2023-04-16T12:50:24.562Z,12.40
2023-04-16T12:52:52.529Z,12.40
2023-04-16T12:55:20.525Z,12.40
2023-04-16T12:57:48.961Z,12.40
2023-04-16T13:00:17.480Z,12.40
2023-04-16T13:02:45.597Z,12.50
2023-04-16T13:05:16.692Z,12.50
2023-04-16T13:07:44.681Z,12.50
2023-04-16T13:10:13.259Z,12.60
2023-04-16T13:12:41.390Z,12.60
2023-04-16T13:15:13.050Z,12.60
2023-04-16T13:17:41.135Z,12.60
2023-04-16T13:20:09.973Z,12.60
2023-04-16T13:22:39.802Z,12.60
2023-04-16T13:25:09.093Z,12.60
2023-04-16T13:27:36.950Z,12.60
2023-04-16T13:30:05.046Z,12.60
2023-04-16T13:32:33.007Z,12.60
2023-04-16T13:35:01.073Z,12.60
2023-04-16T13:37:28.941Z,12.60
2023-04-16T13:39:58.046Z,12.60
2023-04-16T13:42:25.808Z,12.60
2023-04-16T13:44:54.936Z,12.60
2023-04-16T13:47:23.247Z,12.60
2023-04-16T13:49:51.161Z,12.60
2023-04-16T13:52:18.892Z,12.60
2023-04-16T13:54:46.676Z,12.60
2023-04-16T13:57:15.905Z,12.60
2023-04-16T13:59:43.754Z,12.60
2023-04-16T14:02:11.932Z,12.60
2023-04-16T14:04:39.869Z,12.60
2023-04-16T14:07:07.638Z,12.60
2023-04-16T14:09:35.784Z,12.60
2023-04-16T14:12:03.810Z,12.60
2023-04-16T14:14:32.907Z,12.60
2023-04-16T14:17:00.974Z,12.50
2023-04-16T14:19:28.693Z,12.50
2023-04-16T14:21:56.472Z,12.50
2023-04-16T14:24:24.314Z,12.50
2023-04-16T14:26:52.114Z,12.50
2023-04-16T14:29:19.874Z,12.50
2023-04-16T14:31:50.278Z,12.50
2023-04-16T14:34:18.199Z,12.50
2023-04-16T14:36:46.251Z,12.50
2023-04-16T14:39:14.327Z,12.50
2023-04-16T14:41:42.153Z,12.50
2023-04-16T14:44:09.947Z,12.50
2023-04-16T14:46:38.484Z,12.50
2023-04-16T14:49:08.903Z,12.50
2023-04-16T14:51:38.703Z,12.50
2023-04-16T14:54:06.593Z,12.50
2023-04-16T14:56:34.390Z,12.50
2023-04-16T14:59:02.194Z,12.50
2023-04-16T15:01:30.309Z,12.50
2023-04-16T15:04:01.908Z,12.50
2023-04-16T15:06:32.302Z,12.40
2023-04-16T15:09:00.536Z,12.40
2023-04-16T15:11:28.772Z,12.40
2023-04-16T15:13:56.534Z,12.40
2023-04-16T15:16:24.879Z,12.40
2023-04-16T15:18:52.774Z,12.50
2023-04-16T15:21:20.657Z,12.40
2023-04-16T15:23:49.960Z,12.40
2023-04-16T15:26:17.810Z,12.40
2023-04-16T15:28:45.597Z,12.40
2023-04-16T15:31:13.508Z,12.40
2023-04-16T15:33:41.435Z,12.50
2023-04-16T15:36:11.359Z,12.50
2023-04-16T15:38:39.164Z,12.50
2023-04-16T15:41:09.935Z,12.50
2023-04-16T15:43:37.692Z,12.50
2023-04-16T15:46:05.841Z,12.50
2023-04-16T15:48:33.702Z,12.50
2023-04-16T15:51:01.564Z,12.50
2023-04-16T15:53:29.605Z,12.60
2023-04-16T15:55:57.432Z,12.50
2023-04-16T15:58:26.663Z,12.50
2023-04-16T16:00:54.429Z,12.50
2023-04-16T16:03:22.524Z,12.50
2023-04-16T16:05:50.691Z,12.50
2023-04-16T16:08:18.566Z,12.50
2023-04-16T16:10:46.735Z,12.50
2023-04-16T16:13:18.076Z,12.50
2023-04-16T16:15:47.312Z,12.40
2023-04-16T16:18:15.026Z,12.40
2023-04-16T16:20:43.041Z,12.40
2023-04-16T16:23:11.468Z,12.40
2023-04-16T16:25:39.665Z,12.40
2023-04-16T16:28:07.429Z,12.30
2023-04-16T16:30:35.401Z,12.30
2023-04-16T16:33:04.700Z,12.30
2023-04-16T16:35:32.766Z,12.30
2023-04-16T16:38:01.720Z,12.20
2023-04-16T16:40:29.779Z,12.20
2023-04-16T16:42:57.710Z,12.20
2023-04-16T16:45:26.136Z,12.20
2023-04-16T16:47:54.768Z,12.20
2023-04-16T16:50:24.043Z,12.20
2023-04-16T16:52:51.988Z,12.10
2023-04-16T16:55:20.953Z,12.10
2023-04-16T16:57:48.851Z,12.10
2023-04-16T17:00:19.941Z,12.10
2023-04-16T17:02:48.783Z,12.10
2023-04-16T17:05:16.994Z,12.10
2023-04-16T17:07:46.379Z,12.00
2023-04-16T17:10:20.089Z,12.00
2023-04-16T17:12:48.583Z,12.00
2023-04-16T17:15:19.131Z,12.00
2023-04-16T17:17:49.011Z,12.00
2023-04-16T17:20:16.817Z,11.90
2023-04-16T17:22:45.969Z,11.90
2023-04-16T17:25:14.003Z,11.90
2023-04-16T17:27:43.248Z,11.90
2023-04-16T17:30:11.693Z,11.90
2023-04-16T17:32:39.625Z,11.90
2023-04-16T17:35:09.374Z,11.80
2023-04-16T17:37:37.429Z,11.80
2023-04-16T17:40:10.026Z,11.80
2023-04-16T17:42:38.155Z,11.80
2023-04-16T17:45:07.515Z,11.70
2023-04-16T17:47:35.935Z,11.70
2023-04-16T17:50:05.930Z,11.70
2023-04-16T17:52:33.691Z,11.70
2023-04-16T17:55:01.800Z,11.70
2023-04-16T17:57:31.456Z,11.70
2023-04-16T17:59:59.408Z,11.60
2023-04-16T18:02:27.294Z,11.60
2023-04-16T18:04:55.508Z,11.60
2023-04-16T18:07:23.574Z,11.50
2023-04-16T18:09:51.742Z,11.50
2023-04-16T18:12:19.738Z,11.50
2023-04-16T18:14:49.093Z,11.50
2023-04-16T18:17:17.815Z,11.50
2023-04-16T18:19:48.041Z,11.40
2023-04-16T18:22:15.803Z,11.40
2023-04-16T18:24:43.680Z,11.30
2023-04-16T18:27:12.536Z,11.30
2023-04-16T18:29:40.748Z,11.30
2023-04-16T18:32:12.140Z,11.30
2023-04-16T18:34:40.605Z,11.20
2023-04-16T18:37:08.529Z,11.20
2023-04-16T18:39:39.294Z,11.20
2023-04-16T18:42:07.086Z,11.20
2023-04-16T18:44:34.938Z,11.10
2023-04-16T18:47:02.824Z,11.10
2023-04-16T18:49:32.058Z,11.10
2023-04-16T18:51:59.796Z,11.10
2023-04-16T18:54:28.131Z,11.00
2023-04-16T18:56:56.797Z,11.00
2023-04-16T18:59:25.299Z,11.00
2023-04-16T19:01:53.101Z,11.00
2023-04-16T19:04:21.351Z,11.00
2023-04-16T19:06:50.878Z,10.90
2023-04-16T19:09:22.106Z,10.90
2023-04-16T19:11:50.600Z,10.90
2023-04-16T19:14:18.472Z,10.90
2023-04-16T19:16:48.680Z,10.90
2023-04-16T19:19:17.779Z,10.90
2023-04-16T19:21:45.880Z,10.90
2023-04-16T19:24:18.799Z,10.90
2023-04-16T19:26:46.571Z,10.90
2023-04-16T19:29:14.384Z,10.90
2023-04-16T19:31:42.449Z,10.80
2023-04-16T19:34:10.502Z,10.80
2023-04-16T19:36:38.554Z,10.80
2023-04-16T19:39:06.514Z,10.80
2023-04-16T19:41:36.056Z,10.80
2023-04-16T19:44:04.101Z,10.80
2023-04-16T19:46:31.856Z,10.80
2023-04-16T19:48:59.586Z,10.80
2023-04-16T19:51:28.149Z,10.80
2023-04-16T19:53:56.253Z,10.80
2023-04-16T19:56:24.128Z,10.70
2023-04-16T19:58:53.534Z,10.70
2023-04-16T20:01:21.374Z,10.70
2023-04-16T20:03:49.181Z,10.70
2023-04-16T20:06:17.454Z,10.70
2023-04-16T20:08:45.607Z,10.70
2023-04-16T20:11:13.389Z,10.60
2023-04-16T20:13:41.089Z,10.60
2023-04-16T20:16:13.519Z,10.60
2023-04-16T20:18:42.441Z,10.60
2023-04-16T20:21:11.259Z,10.50
2023-04-16T20:23:39.193Z,10.50
2023-04-16T20:26:07.339Z,10.50
2023-04-16T20:28:35.216Z,10.50
2023-04-16T20:31:03.039Z,10.50
2023-04-16T20:33:32.553Z,10.50
2023-04-16T20:36:00.488Z,10.50
2023-04-16T20:38:32.144Z,10.50
2023-04-16T20:41:10.785Z,10.50
2023-04-16T20:43:40.841Z,10.40
2023-04-16T20:46:08.995Z,10.40
2023-04-16T20:48:39.009Z,10.40
2023-04-16T20:51:07.813Z,10.40
2023-04-16T20:53:36.859Z,10.40
2023-04-16T20:56:04.851Z,10.40
2023-04-16T20:58:32.639Z,10.40
2023-04-16T21:01:00.393Z,10.40
2023-04-16T21:03:28.477Z,10.30
2023-04-16T21:05:57.715Z,10.30
2023-04-16T21:08:25.856Z,10.30
2023-04-16T21:10:53.633Z,10.30
2023-04-16T21:13:21.787Z,10.30
2023-04-16T21:15:49.823Z,10.30
2023-04-16T21:18:18.520Z,10.30
2023-04-16T21:20:46.367Z,10.30
2023-04-16T21:23:15.555Z,10.30
2023-04-16T21:25:43.324Z,10.30
2023-04-16T21:28:11.215Z,10.30
2023-04-16T21:30:39.358Z,10.30
2023-04-16T21:33:07.678Z,10.30
2023-04-16T21:35:35.447Z,10.30
2023-04-16T21:38:03.408Z,10.30
2023-04-16T21:40:32.671Z,10.30
2023-04-16T21:43:00.433Z,10.30
2023-04-16T21:45:31.076Z,10.30
2023-04-16T21:47:58.860Z,10.30
2023-04-16T21:50:26.804Z,10.30
2023-04-16T21:52:54.830Z,10.20
2023-04-16T21:55:22.681Z,10.20
2023-04-16T21:57:52.081Z,10.20
2023-04-16T22:00:21.094Z,10.20
2023-04-16T22:02:49.141Z,10.20
2023-04-16T22:05:17.238Z,10.20
2023-04-16T22:07:45.269Z,10.20
2023-04-16T22:10:15.013Z,10.20
2023-04-16T22:12:44.683Z,10.20
2023-04-16T22:15:14.922Z,10.20
2023-04-16T22:17:44.277Z,10.20
2023-04-16T22:20:13.343Z,10.20
2023-04-16T22:22:41.497Z,10.20
2023-04-16T22:25:10.540Z,10.10
2023-04-16T22:27:38.879Z,10.10
2023-04-16T22:30:08.326Z,10.10
2023-04-16T22:32:37.559Z,10.10
2023-04-16T22:35:06.049Z,10.10
2023-04-16T22:37:34.453Z,10.10
2023-04-16T22:40:02.529Z,10.10
2023-04-16T22:42:30.529Z,10.10
2023-04-16T22:44:58.539Z,10.10
2023-04-16T22:47:26.394Z,10.10
2023-04-16T22:49:55.691Z,10.10
2023-04-16T22:52:23.477Z,10.00
2023-04-16T22:54:51.299Z,10.00
2023-04-16T22:57:21.060Z,9.90
2023-04-16T22:59:48.998Z,9.90
2023-04-16T23:02:16.971Z,9.80
2023-04-16T23:04:44.823Z,9.80
2023-04-16T23:07:14.067Z,9.80
2023-04-16T23:09:41.918Z,9.80
2023-04-16T23:12:09.723Z,9.80
2023-04-16T23:14:37.917Z,9.80
2023-04-16T23:17:05.653Z,9.70
2023-04-16T23:19:33.560Z,9.70
2023-04-16T23:22:01.300Z,9.70
2023-04-16T23:24:30.557Z,9.70
2023-04-16T23:26:58.406Z,9.70
2023-04-16T23:29:26.334Z,9.70
2023-04-16T23:31:56.928Z,9.60
2023-04-16T23:34:24.920Z,9.60
2023-04-16T23:36:52.762Z,9.60
2023-04-16T23:39:20.681Z,9.60
2023-04-16T23:41:50.133Z,9.60
2023-04-16T23:44:17.914Z,9.60
2023-04-16T23:46:45.825Z,9.50
2023-04-16T23:49:13.835Z,9.50
2023-04-16T23:51:44.783Z,9.50
2023-04-16T23:54:12.743Z,9.50
2023-04-16T23:56:40.575Z,9.50
2023-04-16T23:59:12.691Z,9.50
